sensor_id;sensor_type;location;lat;lon;timestamp;pressure;altitude;pressure_sealevel;temperature;humidity
56174;BME280;42058;52.308;20.924;2024-01-30T07:39:33;102322.30;;;0.52;100.00
56174;BME280;42058;52.308;20.924;2024-01-30T07:42:01;102320.23;;;0.56;100.00
56174;BME280;42058;52.308;20.924;2024-01-30T07:44:32;102324.95;;;0.61;100.00
56174;BME280;42058;52.308;20.924;2024-01-30T07:47:00;102323.41;;;0.66;100.00
56174;BME280;42058;52.308;20.924;2024-01-30T07:49:27;102322.51;;;0.68;100.00
56174;BME280;42058;52.308;20.924;2024-01-30T07:51:55;102321.25;;;0.71;100.00
56174;BME280;42058;52.308;20.924;2024-01-30T07:54:23;102322.28;;;0.75;100.00
56174;BME280;42058;52.308;20.924;2024-01-30T07:56:50;102322.77;;;0.78;100.00
56174;BME280;42058;52.308;20.924;2024-01-30T07:59:18;102319.27;;;0.81;100.00
56174;BME280;42058;52.308;20.924;2024-01-30T08:01:49;102324.09;;;0.85;100.00
56174;BME280;42058;52.308;20.924;2024-01-30T08:04:17;102322.86;;;0.88;100.00
56174;BME280;42058;52.308;20.924;2024-01-30T08:06:45;102323.67;;;0.91;100.00
56174;BME280;42058;52.308;20.924;2024-01-30T08:09:14;102318.98;;;0.94;100.00
56174;BME280;42058;52.308;20.924;2024-01-30T08:11:42;102314.52;;;0.99;100.00
56174;BME280;42058;52.308;20.924;2024-01-30T08:14:09;102315.04;;;1.03;100.00
56174;BME280;42058;52.308;20.924;2024-01-30T08:16:37;102311.05;;;1.07;100.00
56174;BME280;42058;52.308;20.924;2024-01-30T08:19:05;102312.98;;;1.12;100.00
56174;BME280;42058;52.308;20.924;2024-01-30T08:21:32;102308.55;;;1.17;100.00
56174;BME280;42058;52.308;20.924;2024-01-30T08:24:07;102304.67;;;1.24;100.00
56174;BME280;42058;52.308;20.924;2024-01-30T08:26:35;102305.48;;;1.31;100.00
56174;BME280;42058;52.308;20.924;2024-01-30T08:29:03;102306.58;;;1.37;100.00
56174;BME280;42058;52.308;20.924;2024-01-30T08:31:31;102301.40;;;1.41;100.00
56174;BME280;42058;52.308;20.924;2024-01-30T08:33:59;102294.98;;;1.45;100.00
56174;BME280;42058;52.308;20.924;2024-01-30T08:36:27;102293.64;;;1.50;100.00
56174;BME280;42058;52.308;20.924;2024-01-30T08:38:54;102295.60;;;1.56;100.00
56174;BME280;42058;52.308;20.924;2024-01-30T08:41:28;102296.00;;;1.61;100.00
56174;BME280;42058;52.308;20.924;2024-01-30T08:43:56;102299.17;;;1.67;100.00
56174;BME280;42058;52.308;20.924;2024-01-30T08:46:24;102301.48;;;1.73;100.00
56174;BME280;42058;52.308;20.924;2024-01-30T08:48:52;102303.71;;;1.77;100.00
56174;BME280;42058;52.308;20.924;2024-01-30T08:51:20;102304.60;;;1.82;100.00
56174;BME280;42058;52.308;20.924;2024-01-30T08:53:48;102307.80;;;1.88;100.00
56174;BME280;42058;52.308;20.924;2024-01-30T08:56:16;102303.50;;;1.94;100.00
56174;BME280;42058;52.308;20.924;2024-01-30T08:58:44;102304.42;;;2.00;100.00
56174;BME280;42058;52.308;20.924;2024-01-30T09:01:12;102300.27;;;2.04;100.00
56174;BME280;42058;52.308;20.924;2024-01-30T09:03:40;102304.65;;;2.10;100.00
56174;BME280;42058;52.308;20.924;2024-01-30T09:06:09;102300.71;;;2.16;100.00
56174;BME280;42058;52.308;20.924;2024-01-30T09:08:38;102303.52;;;2.21;100.00
56174;BME280;42058;52.308;20.924;2024-01-30T09:11:11;102301.09;;;2.26;100.00
56174;BME280;42058;52.308;20.924;2024-01-30T09:13:40;102300.62;;;2.32;100.00
56174;BME280;42058;52.308;20.924;2024-01-30T09:16:07;102300.17;;;2.38;100.00
56174;BME280;42058;52.308;20.924;2024-01-30T09:18:35;102300.77;;;2.45;100.00
56174;BME280;42058;52.308;20.924;2024-01-30T09:21:03;102301.00;;;2.52;100.00
56174;BME280;42058;52.308;20.924;2024-01-30T09:23:31;102300.52;;;2.57;100.00
56174;BME280;42058;52.308;20.924;2024-01-30T09:25:59;102298.30;;;2.63;100.00
56174;BME280;42058;52.308;20.924;2024-01-30T09:28:26;102294.01;;;2.69;100.00
56174;BME280;42058;52.308;20.924;2024-01-30T09:30:54;102291.70;;;2.77;100.00
56174;BME280;42058;52.308;20.924;2024-01-30T09:33:22;102290.80;;;2.86;100.00
56174;BME280;42058;52.308;20.924;2024-01-30T09:35:50;102283.42;;;2.94;100.00
56174;BME280;42058;52.308;20.924;2024-01-30T09:38:18;102285.91;;;3.00;100.00
56174;BME280;42058;52.308;20.924;2024-01-30T09:40:53;102285.46;;;3.07;100.00
56174;BME280;42058;52.308;20.924;2024-01-30T09:43:23;102284.16;;;3.15;100.00
56174;BME280;42058;52.308;20.924;2024-01-30T09:45:55;102281.61;;;3.22;100.00
56174;BME280;42058;52.308;20.924;2024-01-30T09:48:25;102274.56;;;3.29;100.00
56174;BME280;42058;52.308;20.924;2024-01-30T09:50:54;102276.20;;;3.36;100.00
56174;BME280;42058;52.308;20.924;2024-01-30T09:53:22;102275.23;;;3.44;100.00
56174;BME280;42058;52.308;20.924;2024-01-30T09:55:50;102277.31;;;3.50;100.00
56174;BME280;42058;52.308;20.924;2024-01-30T09:58:18;102274.55;;;3.55;100.00
